createdAt,value
2023-02-18T00:01:23.122Z,3.10
2023-02-18T00:03:55.230Z,2.38
2023-02-18T00:06:24.917Z,2.30
2023-02-18T00:08:55.800Z,2.35
2023-02-18T00:11:22.714Z,2.40
2023-02-18T00:13:51.573Z,2.22
2023-02-18T00:16:18.398Z,1.65
2023-02-18T00:18:45.326Z,1.63
2023-02-18T00:21:14.988Z,1.55
2023-02-18T00:23:44.214Z,1.63
2023-02-18T00:26:16.177Z,1.70
2023-02-18T00:28:43.510Z,1.27
2023-02-18T00:31:15.810Z,1.52
2023-02-18T00:33:42.900Z,1.42
2023-02-18T00:36:12.481Z,1.60
2023-02-18T00:38:40.353Z,1.45
2023-02-18T00:41:07.166Z,1.40
2023-02-18T00:43:34.108Z,1.73
2023-02-18T00:46:02.333Z,0.93
2023-02-18T00:48:29.143Z,1.20
2023-02-18T00:51:04.165Z,0.73
2023-02-18T00:53:33.314Z,1.40
2023-02-18T00:56:02.796Z,0.88
2023-02-18T01:01:02.052Z,0.80
2023-02-18T01:03:31.381Z,0.82
2023-02-18T01:05:58.185Z,0.60
2023-02-18T01:08:25.475Z,0.70
2023-02-18T01:10:57.509Z,0.60
2023-02-18T01:13:28.729Z,0.50
2023-02-18T01:15:55.764Z,0.50
2023-02-18T01:18:26.010Z,0.60
2023-02-18T01:20:52.797Z,0.57
2023-02-18T01:23:20.110Z,0.60
2023-02-18T01:25:48.783Z,0.40
2023-02-18T01:28:16.498Z,0.50
2023-02-18T01:30:44.627Z,0.50
2023-02-18T01:33:13.491Z,0.50
2023-02-18T01:35:43.505Z,0.40
2023-02-18T01:38:10.613Z,0.40
2023-02-18T01:40:43.985Z,0.43
2023-02-18T01:43:12.792Z,0.40
2023-02-18T01:45:54.491Z,0.30
2023-02-18T01:48:50.235Z,0.35
2023-02-18T01:51:24.165Z,0.30
2023-02-18T01:53:59.607Z,0.30
2023-02-18T01:56:35.629Z,0.20
2023-02-18T01:59:13.255Z,0.30
2023-02-18T02:01:42.895Z,0.30
2023-02-18T02:04:11.743Z,0.40
2023-02-18T02:06:41.539Z,0.40
2023-02-18T02:09:10.818Z,0.30
2023-02-18T02:14:37.318Z,0.38
2023-02-18T02:17:10.857Z,0.30
2023-02-18T02:20:04.435Z,0.35
2023-02-18T02:22:52.425Z,0.30
2023-02-18T02:25:40.539Z,0.50
2023-02-18T02:28:29.193Z,0.30
2023-02-18T02:31:08.536Z,0.20
2023-02-18T02:33:38.534Z,0.30
2023-02-18T02:36:35.411Z,0.20
2023-02-18T02:39:15.363Z,0.30
2023-02-18T02:41:48.079Z,0.45
2023-02-18T02:44:37.845Z,0.25
2023-02-18T02:47:10.956Z,0.30
2023-02-18T02:49:37.950Z,0.30
2023-02-18T02:52:10.174Z,0.20
2023-02-18T02:54:39.545Z,0.30
2023-02-18T02:57:10.674Z,0.20
2023-02-18T02:59:44.618Z,0.25
2023-02-18T03:02:40.104Z,0.30
2023-02-18T03:05:16.050Z,0.40
2023-02-18T03:08:16.351Z,0.30
2023-02-18T03:11:14.277Z,0.30
2023-02-18T03:13:53.198Z,0.30
2023-02-18T03:16:47.609Z,0.20
2023-02-18T03:19:37.192Z,0.20
2023-02-18T03:22:08.884Z,0.30
2023-02-18T03:24:38.826Z,0.20
2023-02-18T03:27:13.955Z,0.35
2023-02-18T03:29:42.245Z,0.50
2023-02-18T03:32:13.459Z,0.30
2023-02-18T03:34:46.876Z,0.28
2023-02-18T03:37:14.904Z,0.25
2023-02-18T03:39:46.898Z,0.28
2023-02-18T03:42:16.401Z,0.20
2023-02-18T03:44:44.998Z,0.20
2023-02-18T03:47:12.167Z,0.20
2023-02-18T03:49:41.451Z,0.40
2023-02-18T03:52:11.492Z,0.28
2023-02-18T03:54:38.240Z,0.20
2023-02-18T03:57:08.548Z,0.30
2023-02-18T03:59:41.211Z,0.28
2023-02-18T04:02:10.305Z,0.30
2023-02-18T04:04:40.008Z,0.30
2023-02-18T04:07:07.060Z,0.20
2023-02-18T04:09:34.109Z,0.30
2023-02-18T04:12:03.764Z,0.20
2023-02-18T04:14:31.097Z,0.20
2023-02-18T04:16:58.204Z,0.30
2023-02-18T04:19:25.436Z,0.30
2023-02-18T04:21:55.127Z,0.25
2023-02-18T04:24:22.428Z,0.30
2023-02-18T04:26:49.611Z,0.40
2023-02-18T04:29:16.996Z,0.30
2023-02-18T04:31:44.184Z,0.50
2023-02-18T04:34:11.372Z,0.20
2023-02-18T04:36:38.560Z,0.30
2023-02-18T04:39:07.753Z,0.40
2023-02-18T04:41:34.546Z,0.20
2023-02-18T04:44:01.572Z,0.20
2023-02-18T04:46:32.959Z,0.20
2023-02-18T04:49:02.087Z,0.32
2023-02-18T04:51:31.405Z,0.40
2023-02-18T04:54:01.253Z,0.20
2023-02-18T04:56:28.773Z,0.20
2023-02-18T04:58:55.744Z,0.30
2023-02-18T05:01:27.589Z,0.40
2023-02-18T05:03:59.272Z,0.30
2023-02-18T05:06:26.158Z,0.40
2023-02-18T05:08:57.659Z,0.80
2023-02-18T05:11:59.475Z,0.20
2023-02-18T05:14:28.675Z,0.20
2023-02-18T05:17:25.308Z,0.30
2023-02-18T05:24:22.690Z,0.43
2023-02-18T05:27:37.871Z,0.38
2023-02-18T05:30:35.845Z,0.40
2023-02-18T05:44:25.202Z,0.55
2023-02-18T05:46:58.264Z,0.30
2023-02-18T05:49:25.371Z,0.43
2023-02-18T05:52:26.728Z,0.40
2023-02-18T05:55:06.811Z,0.30
2023-02-18T06:01:51.265Z,0.50
2023-02-18T06:04:23.229Z,0.50
2023-02-18T06:06:55.134Z,0.40
2023-02-18T06:09:22.576Z,0.40
2023-02-18T06:11:49.583Z,0.75
2023-02-18T06:14:18.791Z,0.50
2023-02-18T06:16:46.105Z,0.40
2023-02-18T06:19:12.912Z,0.40
2023-02-18T06:21:46.744Z,0.38
2023-02-18T06:24:16.495Z,0.40
2023-02-18T06:26:45.759Z,0.30
2023-02-18T06:29:18.852Z,0.30
2023-02-18T06:31:48.305Z,0.20
2023-02-18T06:34:18.118Z,0.32
2023-02-18T06:36:47.391Z,0.20
2023-02-18T06:39:16.283Z,0.40
2023-02-18T06:41:48.618Z,0.20
2023-02-18T06:44:17.666Z,0.20
2023-02-18T06:46:58.361Z,0.20
2023-02-18T06:49:33.788Z,0.20
2023-02-18T06:52:00.626Z,0.30
2023-02-18T06:54:27.565Z,0.20
2023-02-18T06:56:54.743Z,0.20
2023-02-18T06:59:21.603Z,0.30
2023-02-18T07:01:53.913Z,0.20
2023-02-18T07:04:23.087Z,0.20
2023-02-18T07:06:49.853Z,0.30
2023-02-18T07:09:19.430Z,0.20
2023-02-18T07:11:46.183Z,0.30
2023-02-18T07:14:13.013Z,0.30
2023-02-18T07:16:42.521Z,0.20
2023-02-18T07:19:15.510Z,0.25
2023-02-18T07:22:18.909Z,0.50
2023-02-18T07:24:56.701Z,0.28
2023-02-18T07:27:26.510Z,0.30
2023-02-18T07:29:53.720Z,0.40
2023-02-18T07:32:21.041Z,0.30
2023-02-18T07:34:50.109Z,0.32
2023-02-18T07:37:24.785Z,0.30
2023-02-18T07:39:53.633Z,0.40
2023-02-18T07:42:24.964Z,0.30
2023-02-18T07:44:51.740Z,0.40
2023-02-18T07:47:24.287Z,0.30
2023-02-18T07:49:53.201Z,0.30
2023-02-18T07:52:22.871Z,0.25
2023-02-18T07:54:49.825Z,0.22
2023-02-18T07:57:18.869Z,0.43
2023-02-18T07:59:45.558Z,0.30
2023-02-18T08:02:21.778Z,0.30
2023-02-18T08:04:50.964Z,0.93
2023-02-18T08:07:18.922Z,0.20
2023-02-18T08:09:50.970Z,0.30
2023-02-18T08:12:18.300Z,0.20
2023-02-18T08:14:45.151Z,0.30
2023-02-18T08:17:12.066Z,0.40
2023-02-18T08:19:38.951Z,0.20
2023-02-18T08:22:12.925Z,0.20
2023-02-18T08:24:42.166Z,0.30
2023-02-18T08:27:18.862Z,0.20
2023-02-18T08:30:03.547Z,0.20
2023-02-18T08:32:36.257Z,0.20
2023-02-18T08:35:08.008Z,0.30
2023-02-18T08:37:53.104Z,0.28
2023-02-18T08:40:23.586Z,0.20
2023-02-18T08:42:55.080Z,0.40
2023-02-18T08:45:24.506Z,0.30
2023-02-18T08:48:18.703Z,0.30
2023-02-18T08:50:54.062Z,0.30
2023-02-18T08:53:35.686Z,0.40
2023-02-18T08:56:50.489Z,0.30
2023-02-18T08:59:40.085Z,0.20
2023-02-18T09:05:33.628Z,0.22
2023-02-18T09:08:00.588Z,0.30
2023-02-18T09:10:39.776Z,0.30
2023-02-18T09:13:21.439Z,0.30
2023-02-18T09:16:03.362Z,0.30
2023-02-18T09:18:39.591Z,0.30
2023-02-18T09:21:40.769Z,0.28
2023-02-18T09:24:47.868Z,0.20
2023-02-18T09:28:05.372Z,0.15
2023-02-18T09:30:42.987Z,0.20
2023-02-18T09:33:17.048Z,0.20
2023-02-18T09:35:47.628Z,0.20
2023-02-18T09:38:22.138Z,0.20
2023-02-18T09:41:06.710Z,0.22
2023-02-18T09:43:54.008Z,0.40
2023-02-18T09:51:06.901Z,0.30
2023-02-18T09:53:33.939Z,0.30
2023-02-18T09:56:01.486Z,0.32
2023-02-18T09:58:33.706Z,0.20
2023-02-18T10:01:13.418Z,0.20
2023-02-18T10:03:43.934Z,0.20
2023-02-18T10:06:16.630Z,0.20
2023-02-18T10:08:46.085Z,0.25
2023-02-18T10:11:17.755Z,0.30
2023-02-18T10:13:48.191Z,0.20
2023-02-18T10:16:25.098Z,0.30
2023-02-18T10:18:58.948Z,0.43
2023-02-18T10:21:33.247Z,0.22
2023-02-18T10:24:21.481Z,0.43
2023-02-18T10:26:56.436Z,0.15
2023-02-18T10:29:26.462Z,0.30
2023-02-18T10:31:57.593Z,0.30
2023-02-18T10:34:41.662Z,0.20
2023-02-18T10:37:26.782Z,0.25
2023-02-18T10:40:06.150Z,0.30
2023-02-18T10:42:43.606Z,0.20
2023-02-18T10:45:31.769Z,0.40
2023-02-18T10:48:15.244Z,0.20
2023-02-18T10:50:43.359Z,0.20
2023-02-18T10:53:13.299Z,0.20
2023-02-18T10:55:49.505Z,0.30
2023-02-18T10:58:35.806Z,0.85
2023-02-18T11:01:11.566Z,0.20
2023-02-18T11:03:48.702Z,0.20
2023-02-18T11:06:30.000Z,0.25
2023-02-18T11:09:00.060Z,0.28
2023-02-18T11:11:33.355Z,0.30
2023-02-18T11:14:04.438Z,0.50
2023-02-18T11:16:45.518Z,0.40
2023-02-18T11:19:36.225Z,0.30
2023-02-18T11:22:24.795Z,0.60
2023-02-18T11:25:02.450Z,0.30
2023-02-18T11:27:44.444Z,0.30
2023-02-18T11:30:34.373Z,0.22
2023-02-18T11:33:06.463Z,0.20
2023-02-18T11:35:38.416Z,0.30
2023-02-18T11:38:22.639Z,0.63
2023-02-18T11:41:14.110Z,0.40
2023-02-18T11:43:50.372Z,0.40
2023-02-18T11:46:23.027Z,0.47
2023-02-18T11:48:50.764Z,0.40
2023-02-18T11:51:23.217Z,0.63
2023-02-18T11:54:05.554Z,0.50
2023-02-18T11:56:36.401Z,0.30
2023-02-18T11:59:07.171Z,0.40
2023-02-18T12:02:13.480Z,0.30
2023-02-18T12:04:51.931Z,0.60
2023-02-18T12:07:57.204Z,0.30
2023-02-18T12:10:31.492Z,0.30
2023-02-18T12:13:26.599Z,0.32
2023-02-18T12:16:02.430Z,0.33
2023-02-18T12:19:00.536Z,0.30
2023-02-18T12:21:35.631Z,0.30
2023-02-18T12:24:31.739Z,0.30
2023-02-18T12:27:18.349Z,0.30
2023-02-18T12:30:09.900Z,0.45
2023-02-18T12:32:51.925Z,0.25
2023-02-18T12:35:36.410Z,0.30
2023-02-18T12:38:28.139Z,0.20
2023-02-18T12:40:54.889Z,0.30
2023-02-18T12:43:21.961Z,0.30
2023-02-18T12:46:09.815Z,0.20
2023-02-18T12:48:49.491Z,0.20
2023-02-18T12:51:54.985Z,0.20
2023-02-18T12:54:56.777Z,0.20
2023-02-18T12:57:42.369Z,0.10
2023-02-18T13:00:35.088Z,0.20
2023-02-18T13:03:21.056Z,0.20
2023-02-18T13:06:14.075Z,0.20
2023-02-18T13:09:07.819Z,0.35
2023-02-18T13:11:57.047Z,0.35
2023-02-18T13:14:26.262Z,0.20
2023-02-18T13:19:47.220Z,0.20
2023-02-18T13:22:16.910Z,0.20
2023-02-18T13:24:51.038Z,0.20
2023-02-18T13:27:46.940Z,0.17
2023-02-18T13:30:17.706Z,0.20
2023-02-18T13:33:22.045Z,0.38
2023-02-18T13:35:48.780Z,0.15
2023-02-18T13:38:40.351Z,0.10
2023-02-18T13:41:08.719Z,0.10
2023-02-18T13:43:36.497Z,0.20
2023-02-18T13:46:18.981Z,0.60
2023-02-18T13:48:53.128Z,0.50
2023-02-18T13:51:53.907Z,0.20
2023-02-18T13:54:32.583Z,0.10
2023-02-18T13:57:08.620Z,0.10
2023-02-18T13:59:42.145Z,0.33
2023-02-18T14:02:20.684Z,0.10
2023-02-18T14:04:52.088Z,0.10
2023-02-18T14:07:25.165Z,0.10
2023-02-18T14:09:53.604Z,0.17
2023-02-18T14:12:26.357Z,0.10
2023-02-18T14:14:56.756Z,0.10
2023-02-18T14:17:23.841Z,0.20
2023-02-18T14:20:00.101Z,0.13
2023-02-18T14:22:39.157Z,0.20
2023-02-18T14:27:43.958Z,0.30
2023-02-18T14:30:23.035Z,0.20
2023-02-18T14:35:40.263Z,0.10
2023-02-18T14:38:13.301Z,0.20
2023-02-18T14:41:06.085Z,0.20
2023-02-18T14:44:08.191Z,0.10
2023-02-18T14:46:57.286Z,0.10
2023-02-18T14:49:31.474Z,0.13
2023-02-18T14:52:01.606Z,0.10
2023-02-18T14:54:31.718Z,0.10
2023-02-18T14:57:04.141Z,0.15
2023-02-18T14:59:41.977Z,0.15
2023-02-18T15:02:20.803Z,0.13
2023-02-18T15:04:57.381Z,0.20
2023-02-18T15:07:26.432Z,0.20
2023-02-18T15:12:25.714Z,0.20
2023-02-18T15:15:06.213Z,0.20
2023-02-18T15:17:35.342Z,0.20
2023-02-18T15:20:07.002Z,0.20
2023-02-18T15:22:38.260Z,9.13
2023-02-18T15:25:10.038Z,15.35
2023-02-18T15:27:55.377Z,18.13
2023-02-18T15:30:31.462Z,19.73
2023-02-18T15:33:03.107Z,20.25
2023-02-18T15:35:33.195Z,21.73
2023-02-18T15:38:01.159Z,20.98
2023-02-18T15:40:31.822Z,22.20
2023-02-18T15:43:01.144Z,22.50
2023-02-18T15:45:33.774Z,23.63
2023-02-18T15:48:04.460Z,24.65
2023-02-18T15:50:50.189Z,25.58
2023-02-18T15:53:18.774Z,26.75
2023-02-18T15:55:51.220Z,25.98
2023-02-18T15:58:22.989Z,27.33
2023-02-18T16:00:55.304Z,28.23
2023-02-18T16:03:22.085Z,27.75
2023-02-18T16:06:22.041Z,28.70
2023-02-18T16:09:03.328Z,28.27
2023-02-18T16:11:39.102Z,30.70
2023-02-18T16:14:08.615Z,31.02
2023-02-18T16:16:40.850Z,29.50
2023-02-18T16:19:24.101Z,30.55
2023-02-18T16:21:52.553Z,29.95
2023-02-18T16:24:28.353Z,28.90
2023-02-18T16:27:01.603Z,29.83
2023-02-18T16:29:40.005Z,30.05
2023-02-18T16:32:07.420Z,30.10
2023-02-18T16:34:36.738Z,28.83
2023-02-18T16:37:22.998Z,32.17
2023-02-18T16:39:54.994Z,30.73
2023-02-18T16:42:22.160Z,31.58
2023-02-18T16:44:50.634Z,31.50
2023-02-18T16:47:18.466Z,30.23
2023-02-18T16:49:48.896Z,31.23
2023-02-18T16:52:19.572Z,32.08
2023-02-18T16:54:53.362Z,32.40
2023-02-18T16:58:05.405Z,33.25
2023-02-18T17:04:07.872Z,33.20
2023-02-18T17:06:59.264Z,33.65
2023-02-18T17:14:18.258Z,33.60
2023-02-18T17:17:00.320Z,32.53
2023-02-18T17:19:33.603Z,32.28
2023-02-18T17:22:20.720Z,31.67
2023-02-18T17:24:55.456Z,32.75
2023-02-18T17:27:24.705Z,33.10
2023-02-18T17:30:03.975Z,33.22
2023-02-18T17:32:38.981Z,33.40
2023-02-18T17:35:20.379Z,34.15
2023-02-18T17:38:14.706Z,35.53
2023-02-18T17:45:05.735Z,34.30
2023-02-18T17:47:42.711Z,34.30
2023-02-18T17:50:21.334Z,35.10
2023-02-18T17:53:29.197Z,33.88
2023-02-18T17:56:01.886Z,34.20
2023-02-18T17:58:46.158Z,34.53
2023-02-18T18:01:59.347Z,33.38
2023-02-18T18:04:38.193Z,33.65
2023-02-18T18:11:35.197Z,33.90
2023-02-18T18:14:22.858Z,34.55
2023-02-18T18:16:53.297Z,34.60
2023-02-18T18:19:27.166Z,32.92
2023-02-18T18:22:18.539Z,33.88
2023-02-18T18:24:55.744Z,32.03
2023-02-18T18:30:55.998Z,30.90
2023-02-18T18:33:35.405Z,31.08
2023-02-18T18:36:15.819Z,29.88
2023-02-18T18:38:53.169Z,31.83
2023-02-18T18:41:28.108Z,28.45
2023-02-18T18:44:16.664Z,28.50
2023-02-18T18:46:49.932Z,28.13
2023-02-18T18:49:28.446Z,26.40
2023-02-18T18:52:09.936Z,26.95
2023-02-18T18:54:37.441Z,26.88
2023-02-18T18:57:07.938Z,22.98
2023-02-18T18:59:40.160Z,22.08
2023-02-18T19:02:20.345Z,19.02
2023-02-18T19:04:55.242Z,21.13
2023-02-18T19:07:37.906Z,17.73
2023-02-18T19:10:12.357Z,17.83
2023-02-18T19:12:44.641Z,15.10
2023-02-18T19:15:17.958Z,12.68
2023-02-18T19:17:58.932Z,13.40
2023-02-18T19:20:51.507Z,15.98
2023-02-18T19:23:24.860Z,12.13
2023-02-18T19:26:03.603Z,11.75
2023-02-18T19:29:08.355Z,12.60
2023-02-18T19:31:48.038Z,12.07
2023-02-18T19:34:25.961Z,12.57
2023-02-18T19:37:06.067Z,12.25
2023-02-18T19:39:53.038Z,10.95
2023-02-18T19:42:30.875Z,13.05
2023-02-18T19:45:05.204Z,12.68
2023-02-18T19:47:40.633Z,13.38
2023-02-18T19:53:21.646Z,13.38
2023-02-18T19:56:02.441Z,14.93
2023-02-18T19:58:32.009Z,14.88
2023-02-18T20:01:09.655Z,14.90
2023-02-18T20:03:39.913Z,14.90
2023-02-18T20:06:15.802Z,13.23
2023-02-18T20:08:45.084Z,14.60
2023-02-18T20:11:20.498Z,13.90
2023-02-18T20:14:00.219Z,13.85
2023-02-18T20:16:56.282Z,13.73
2023-02-18T20:19:39.955Z,13.25
2023-02-18T20:22:14.150Z,12.73
2023-02-18T20:24:50.225Z,14.02
2023-02-18T20:27:25.138Z,14.02
2023-02-18T20:29:58.174Z,14.70
2023-02-18T20:32:46.567Z,14.65
2023-02-18T20:37:42.416Z,17.83
2023-02-18T20:40:14.221Z,18.65
2023-02-18T20:42:49.971Z,17.42
2023-02-18T20:45:25.736Z,18.52
2023-02-18T20:47:55.169Z,18.45
2023-02-18T20:50:23.514Z,18.85
2023-02-18T20:53:06.204Z,20.00
2023-02-18T20:55:34.128Z,18.52
2023-02-18T20:58:12.444Z,18.30
2023-02-18T21:00:42.913Z,18.58
2023-02-18T21:03:29.819Z,19.25
2023-02-18T21:06:12.788Z,19.30
2023-02-18T21:08:48.139Z,18.98
2023-02-18T21:11:42.034Z,18.15
2023-02-18T21:14:13.375Z,16.02
2023-02-18T21:16:47.309Z,15.38
2023-02-18T21:19:23.182Z,13.00
2023-02-18T21:21:56.514Z,14.27
2023-02-18T21:24:29.815Z,10.80
2023-02-18T21:26:59.852Z,15.18
2023-02-18T21:29:40.740Z,11.75
2023-02-18T21:32:41.048Z,15.20
2023-02-18T21:35:11.477Z,9.85
2023-02-18T21:37:50.946Z,10.70
2023-02-18T21:40:20.818Z,6.85
2023-02-18T21:42:50.897Z,5.70
2023-02-18T21:45:48.882Z,5.50
2023-02-18T21:48:54.201Z,5.55
2023-02-18T21:51:42.964Z,5.53
2023-02-18T21:54:22.255Z,4.40
2023-02-18T21:57:03.423Z,3.35
2023-02-18T21:59:36.002Z,2.58
2023-02-18T22:02:10.656Z,2.05
2023-02-18T22:04:38.126Z,2.20
2023-02-18T22:07:06.498Z,2.70
2023-02-18T22:09:39.460Z,2.85
2023-02-18T22:12:07.220Z,2.40
2023-02-18T22:14:34.853Z,2.40
2023-02-18T22:17:02.134Z,2.45
2023-02-18T22:19:32.661Z,1.90
2023-02-18T22:22:07.492Z,1.50
2023-02-18T22:24:41.602Z,1.60
2023-02-18T22:27:08.629Z,1.65
2023-02-18T22:29:44.628Z,1.15
2023-02-18T22:32:17.117Z,1.55
2023-02-18T22:34:46.526Z,1.20
2023-02-18T22:39:55.006Z,0.90
2023-02-18T22:42:22.348Z,0.90
2023-02-18T22:44:51.806Z,1.15
2023-02-18T22:47:25.437Z,1.17
2023-02-18T22:49:57.942Z,0.90
2023-02-18T22:52:30.865Z,0.90
2023-02-18T22:55:00.909Z,1.05
2023-02-18T22:57:30.570Z,0.82
2023-02-18T22:59:58.897Z,0.55
2023-02-18T23:02:25.976Z,0.63
2023-02-18T23:04:53.310Z,0.70
2023-02-18T23:07:24.732Z,1.00
2023-02-18T23:10:01.054Z,0.93
2023-02-18T23:12:31.213Z,0.52
2023-02-18T23:15:06.797Z,0.80
2023-02-18T23:17:35.341Z,0.88
2023-02-18T23:20:06.315Z,0.80
2023-02-18T23:22:45.387Z,0.70
2023-02-18T23:25:16.244Z,0.90
2023-02-18T23:27:52.337Z,1.05
2023-02-18T23:30:24.558Z,0.70
2023-02-18T23:32:57.342Z,0.73
2023-02-18T23:35:29.707Z,0.73
2023-02-18T23:38:04.487Z,0.52
2023-02-18T23:40:35.529Z,0.55
2023-02-18T23:43:05.438Z,0.50
2023-02-18T23:45:35.538Z,0.93
2023-02-18T23:48:06.001Z,0.73
2023-02-18T23:50:40.435Z,0.60
2023-02-18T23:53:13.106Z,0.68
2023-02-18T23:55:42.725Z,0.50
2023-02-18T23:58:14.439Z,0.40
